Time;durP1;ratioP1;P1;durP2;ratioP2;P2;SDS_P1;SDS_P2;PMS_P1;PMS_P2;Temp;Humidity;BMP_temperature;BMP_pressure;BME280_temperature;BME280_humidity;BME280_pressure;Samples;Min_cycle;Max_cycle;Signal;HPM_P1;HPM_P2
2023/01/21 00:01:23;;;;;;;3.00;2.70;;;;;;;-0.64;100.00;96469.15;110702;1245;58911;-74
2023/01/21 00:03:52;;;;;;;3.20;2.50;;;;;;;-0.64;100.00;96477.51;110727;1241;58941;-74
2023/01/21 00:06:21;;;;;;;4.50;3.50;;;;;;;-0.64;100.00;96483.52;110699;1238;70553;-73
2023/01/21 00:08:49;;;;;;;14.20;7.40;;;;;;;-0.65;100.00;96487.84;110591;1247;69073;-74
2023/01/21 00:11:18;;;;;;;15.50;8.30;;;;;;;-0.65;100.00;96493.13;110623;1241;69131;-74
2023/01/21 00:13:47;;;;;;;27.40;12.10;;;;;;;-0.67;100.00;96498.89;110622;1241;58937;-74
2023/01/21 00:16:16;;;;;;;29.60;12.20;;;;;;;-0.70;100.00;96498.69;110606;1242;58818;-74
2023/01/21 00:18:47;;;;;;;25.40;11.70;;;;;;;-0.72;100.00;96502.52;110676;1241;70677;-73
2023/01/21 00:21:17;;;;;;;17.70;9.30;;;;;;;-0.74;100.00;96505.33;110609;1241;69306;-74
2023/01/21 00:23:46;;;;;;;10.10;6.10;;;;;;;-0.74;100.00;96510.10;110698;1241;69652;-73
2023/01/21 00:26:15;;;;;;;10.90;5.50;;;;;;;-0.74;100.00;96514.39;110681;1238;58939;-73
2023/01/21 00:28:45;;;;;;;4.90;3.60;;;;;;;-0.72;100.00;96521.00;110729;1238;58935;-74
2023/01/21 00:31:14;;;;;;;6.10;4.30;;;;;;;-0.69;100.00;96527.20;110551;1241;70569;-74
2023/01/21 00:33:43;;;;;;;10.90;6.20;;;;;;;-0.70;100.00;96525.38;110711;1241;69063;-73
2023/01/21 00:36:13;;;;;;;7.20;5.00;;;;;;;-0.71;100.00;96534.14;110716;1240;69986;-73
2023/01/21 00:38:43;;;;;;;5.20;3.80;;;;;;;-0.72;100.00;96532.79;110647;1241;59324;-73
2023/01/21 00:41:13;;;;;;;4.40;3.70;;;;;;;-0.76;100.00;96540.50;110421;1238;58956;-74
2023/01/21 00:43:42;;;;;;;;;;;;;;;-0.77;100.00;96544.29;110606;1238;70438;-74
2023/01/21 00:46:12;;;;;;;;;;;;;;;-0.74;100.00;96546.58;110792;1241;69233;-74
2023/01/21 00:48:42;;;;;;;4.10;3.30;;;;;;;-0.80;100.00;96549.54;110683;1242;68775;-74
2023/01/21 00:51:12;;;;;;;6.00;4.90;;;;;;;-0.81;100.00;96553.19;110627;1241;59263;-74
2023/01/21 00:53:41;;;;;;;6.20;4.60;;;;;;;-0.81;100.00;96559.52;110525;1240;58934;-74
2023/01/21 00:56:12;;;;;;;7.60;5.90;;;;;;;-0.79;100.00;96563.02;110671;1241;71047;-74
2023/01/21 00:58:44;;;;;;;6.80;5.70;;;;;;;-0.81;100.00;96563.79;110694;1241;68553;-74
2023/01/21 01:01:20;;;;;;;7.10;5.50;;;;;;;-0.82;100.00;96567.23;110593;1240;69189;-74
2023/01/21 01:03:49;;;;;;;6.40;5.70;;;;;;;-0.83;100.00;96570.52;110584;1241;58890;-74
2023/01/21 01:06:21;;;;;;;8.60;6.30;;;;;;;-0.86;100.00;96575.98;110637;1241;58856;-73
2023/01/21 01:08:50;;;;;;;8.70;6.00;;;;;;;-0.84;100.00;96587.19;110699;1239;71235;-73
2023/01/21 01:11:24;;;;;;;7.30;4.60;;;;;;;-0.87;100.00;96596.36;110711;1242;68452;-74
2023/01/21 01:13:54;;;;;;;7.00;5.10;;;;;;;-0.88;100.00;96599.66;110725;1241;70207;-73
2023/01/21 01:16:23;;;;;;;7.10;5.40;;;;;;;-0.86;100.00;96601.45;110706;1241;58889;-73
2023/01/21 01:18:52;;;;;;;7.40;5.50;;;;;;;-0.85;100.00;96606.05;110692;1241;58945;-73
2023/01/21 01:21:22;;;;;;;7.40;5.90;;;;;;;-0.86;100.00;96609.33;110765;1241;69919;-74
2023/01/21 01:23:52;;;;;;;9.20;7.00;;;;;;;-0.86;100.00;96611.91;110196;1241;557355;-73
2023/01/21 01:26:21;;;;;;;9.50;6.90;;;;;;;-0.85;100.00;96615.26;110655;1238;69802;-74
2023/01/21 01:28:51;;;;;;;8.10;6.60;;;;;;;-0.86;100.00;96617.20;110689;1238;58924;-73
2023/01/21 01:31:21;;;;;;;9.30;6.50;;;;;;;-0.83;100.00;96617.09;110683;1240;58870;-74
2023/01/21 01:33:51;;;;;;;8.70;6.40;;;;;;;-0.84;100.00;96618.66;110670;1241;69883;-73
2023/01/21 01:36:25;;;;;;;8.10;6.40;;;;;;;-0.84;100.00;96622.58;110645;1242;69377;-73
2023/01/21 01:38:55;;;;;;;7.60;5.90;;;;;;;-0.84;100.00;96628.77;110688;1241;68532;-73
2023/01/21 01:41:28;;;;;;;11.20;8.40;;;;;;;-0.86;100.00;96628.84;110628;1240;58838;-73
2023/01/21 01:44:39;;;;;;;10.70;7.90;;;;;;;-0.82;100.00;96631.39;110585;1242;58877;-72
2023/01/21 01:47:09;;;;;;;8.30;6.80;;;;;;;-0.83;100.00;96627.35;110632;1241;70422;-73
2023/01/21 01:49:41;;;;;;;12.30;8.60;;;;;;;-0.82;100.00;96629.35;110662;1240;68710;-73
2023/01/21 01:52:12;;;;;;;13.10;8.60;;;;;;;-0.83;100.00;96632.30;110601;1241;69274;-73
2023/01/21 01:54:47;;;;;;;11.00;7.90;;;;;;;-0.81;100.00;96635.66;110619;1241;58890;-72
2023/01/21 01:57:21;;;;;;;11.90;8.30;;;;;;;-0.83;100.00;96641.70;110693;1241;58800;-73
2023/01/21 01:59:51;;;;;;;12.00;8.50;;;;;;;-0.83;100.00;96647.20;110631;1240;70506;-72
2023/01/21 02:02:20;;;;;;;14.10;10.30;;;;;;;-0.84;100.00;96648.77;110563;1241;67603;-73
2023/01/21 02:04:54;;;;;;;12.40;8.00;;;;;;;-0.82;100.00;96652.29;110597;1241;67580;-73
2023/01/21 02:07:25;;;;;;;11.40;7.60;;;;;;;-0.83;100.00;96656.41;110429;1239;58869;-72
2023/01/21 02:09:56;;;;;;;10.10;6.90;;;;;;;-0.82;100.00;96661.55;110718;1240;58879;-73
2023/01/21 02:12:25;;;;;;;11.20;8.00;;;;;;;-0.81;100.00;96667.83;110647;1241;70596;-73
2023/01/21 02:14:55;;;;;;;12.40;8.70;;;;;;;-0.81;100.00;96668.17;110642;1241;69745;-73
2023/01/21 02:17:30;;;;;;;9.50;7.20;;;;;;;-0.80;100.00;96668.96;110647;1241;69119;-72
2023/01/21 02:20:18;;;;;;;9.30;6.60;;;;;;;-0.80;100.00;96666.74;110633;1241;58863;-73
2023/01/21 02:22:56;;;;;;;9.60;6.80;;;;;;;-0.78;100.00;96666.84;110585;1241;58923;-72
2023/01/21 02:25:25;;;;;;;8.90;6.80;;;;;;;-0.75;100.00;96665.71;110475;1241;69454;-73
2023/01/21 02:28:36;;;;;;;9.10;6.80;;;;;;;-0.76;100.00;96669.34;110503;1240;68552;-73
2023/01/21 02:31:30;;;;;;;8.80;6.40;;;;;;;-0.77;100.00;96669.01;110664;1241;68714;-73
2023/01/21 02:34:07;;;;;;;8.70;6.60;;;;;;;-0.75;100.00;96672.20;110270;1242;59243;-73
2023/01/21 02:37:20;;;;;;;9.50;7.10;;;;;;;-0.73;100.00;96672.14;110485;1241;58827;-73
2023/01/21 02:40:04;;;;;;;7.90;5.90;;;;;;;-0.73;100.00;96670.91;110397;1240;70670;-72
2023/01/21 02:42:46;;;;;;;9.30;6.90;;;;;;;-0.72;100.00;96667.12;110536;1241;68947;-73
2023/01/21 02:45:21;;;;;;;9.40;6.60;;;;;;;-0.72;100.00;96666.10;110611;1240;68492;-72
2023/01/21 02:48:05;;;;;;;9.50;6.60;;;;;;;-0.72;100.00;96660.61;110522;1242;58940;-72
2023/01/21 02:50:42;;;;;;;10.40;7.40;;;;;;;-0.75;100.00;96660.23;110752;1241;58872;-72
2023/01/21 02:53:38;;;;;;;10.10;7.40;;;;;;;-0.77;100.00;96660.13;110740;1241;69804;-72
2023/01/21 02:56:13;;;;;;;10.40;7.30;;;;;;;-0.79;100.00;96661.55;110717;1241;69115;-72
2023/01/21 02:58:57;;;;;;;10.20;7.90;;;;;;;-0.79;100.00;96660.39;110584;1246;69113;-72
2023/01/21 03:02:11;;;;;;;9.90;7.10;;;;;;;-0.79;100.00;96671.85;110593;1240;58941;-73
2023/01/21 03:04:49;;;;;;;12.50;7.70;;;;;;;-0.79;100.00;96682.96;110200;1241;58928;-72
2023/01/21 03:07:36;;;;;;;12.50;8.90;;;;;;;-0.75;100.00;96688.98;110617;1241;69182;-72
2023/01/21 03:10:37;;;;;;;8.30;6.30;;;;;;;-0.72;100.00;96694.85;110761;1241;69852;-73
2023/01/21 03:19:43;;;;;;;11.10;7.80;;;;;;;-0.61;100.00;96697.66;110716;1241;58835;-73
2023/01/21 03:22:20;;;;;;;11.10;7.50;;;;;;;-0.59;100.00;96699.31;110639;1239;70389;-72
2023/01/21 03:24:52;;;;;;;10.60;7.80;;;;;;;-0.58;100.00;96702.85;110549;1242;69745;-72
2023/01/21 03:27:25;;;;;;;9.10;6.70;;;;;;;-0.57;100.00;96705.54;110729;1238;68545;-73
2023/01/21 03:30:08;;;;;;;9.50;7.80;;;;;;;-0.56;100.00;96710.60;110724;1238;58946;-72
2023/01/21 03:32:40;;;;;;;8.50;6.80;;;;;;;-0.55;100.00;96709.38;110611;1238;58853;-72
2023/01/21 03:35:14;;;;;;;8.70;7.10;;;;;;;-0.54;100.00;96709.54;110734;1241;69969;-72
2023/01/21 03:38:13;;;;;;;11.80;7.90;;;;;;;-0.52;100.00;96712.02;110612;1240;69640;-72
2023/01/21 03:41:01;;;;;;;9.30;7.20;;;;;;;-0.49;100.00;96719.80;110672;1240;69268;-72
2023/01/21 03:43:31;;;;;;;8.60;6.80;;;;;;;-0.48;100.00;96723.17;110653;1242;58908;-73
2023/01/21 03:46:16;;;;;;;8.40;6.80;;;;;;;-0.46;100.00;96728.23;110683;1240;58883;-72
2023/01/21 03:49:18;;;;;;;10.50;7.80;;;;;;;-0.45;100.00;96730.92;110710;1241;70597;-72
2023/01/21 03:51:52;;;;;;;9.20;6.90;;;;;;;-0.44;100.00;96739.96;110780;1241;69273;-72
2023/01/21 03:54:22;;;;;;;8.90;6.60;;;;;;;-0.44;100.00;96749.23;110577;1240;69268;-72
2023/01/21 03:56:51;;;;;;;10.00;7.80;;;;;;;-0.45;100.00;96755.05;110612;1241;58857;-72
2023/01/21 03:59:20;;;;;;;9.70;7.10;;;;;;;-0.44;100.00;96755.02;110444;1242;58881;-73
2023/01/21 04:01:49;;;;;;;7.30;5.30;;;;;;;-0.44;100.00;96754.68;110638;1241;70790;-73
2023/01/21 04:04:17;;;;;;;7.10;5.70;;;;;;;-0.43;100.00;96752.77;110602;1240;69069;-73
2023/01/21 04:06:46;;;;;;;8.20;5.80;;;;;;;-0.42;100.00;96755.27;110694;1238;69818;-73
2023/01/21 04:09:15;;;;;;;7.10;5.20;;;;;;;-0.40;100.00;96755.89;110465;1241;58944;-72
2023/01/21 04:11:44;;;;;;;6.50;5.40;;;;;;;-0.38;100.00;96753.40;110695;1238;58895;-72
2023/01/21 04:14:13;;;;;;;7.70;5.50;;;;;;;-0.35;100.00;96752.42;110554;1241;70732;-73
2023/01/21 04:16:43;;;;;;;8.20;6.00;;;;;;;-0.33;100.00;96753.71;110607;1240;69685;-73
2023/01/21 04:19:12;;;;;;;8.00;6.20;;;;;;;-0.32;100.00;96751.98;110456;1242;69659;-72
2023/01/21 04:21:41;;;;;;;8.10;6.20;;;;;;;-0.32;100.00;96750.95;110697;1241;59002;-72
2023/01/21 04:24:11;;;;;;;9.10;6.90;;;;;;;-0.32;100.00;96750.41;110806;1238;58908;-72
2023/01/21 04:26:40;;;;;;;9.50;6.80;;;;;;;-0.30;100.00;96751.56;110556;1238;70587;-72
2023/01/21 04:29:09;;;;;;;12.90;8.20;;;;;;;-0.28;100.00;96759.70;110654;1240;69246;-72
2023/01/21 04:31:38;;;;;;;6.40;5.30;;;;;;;-0.27;100.00;96766.33;110665;1241;69368;-71
2023/01/21 04:34:09;;;;;;;12.70;9.10;;;;;;;-0.26;100.00;96768.83;110651;1239;58931;-71
2023/01/21 04:36:38;;;;;;;13.90;9.80;;;;;;;-0.27;100.00;96777.27;110642;1241;58934;-71
2023/01/21 04:39:07;;;;;;;11.40;9.20;;;;;;;-0.28;100.00;96783.64;110667;1241;71141;-72
2023/01/21 04:41:36;;;;;;;12.10;8.80;;;;;;;-0.28;100.00;96784.50;110384;1242;69749;-71
2023/01/21 04:44:06;;;;;;;11.50;8.30;;;;;;;-0.27;100.00;96794.73;110730;1241;67664;-71
2023/01/21 04:46:35;;;;;;;11.20;7.80;;;;;;;-0.28;100.00;96804.38;110703;1240;58904;-71
2023/01/21 04:49:05;;;;;;;11.60;8.10;;;;;;;-0.30;100.00;96815.58;110629;1241;58856;-71
2023/01/21 04:51:34;;;;;;;10.00;7.20;;;;;;;-0.32;100.00;96820.95;110319;1242;70598;-71
2023/01/21 04:54:03;;;;;;;8.90;6.60;;;;;;;-0.33;100.00;96828.54;110709;1241;69841;-71
2023/01/21 04:56:32;;;;;;;8.10;6.50;;;;;;;-0.34;100.00;96835.08;110651;1241;69264;-71
2023/01/21 04:59:01;;;;;;;10.20;7.00;;;;;;;-0.34;100.00;96837.98;110641;1241;58906;-71
2023/01/21 05:01:30;;;;;;;8.30;6.20;;;;;;;-0.33;100.00;96836.60;110669;1238;58889;-71
2023/01/21 05:04:00;;;;;;;8.80;6.80;;;;;;;-0.32;100.00;96830.39;110663;1239;70603;-72
2023/01/21 05:06:29;;;;;;;11.60;8.60;;;;;;;-0.30;100.00;96823.45;110630;1242;69663;-71
2023/01/21 05:08:58;;;;;;;11.40;8.70;;;;;;;-0.28;100.00;96811.05;110674;1240;69275;-71
2023/01/21 05:11:27;;;;;;;13.30;9.70;;;;;;;-0.27;100.00;96801.96;110819;1241;58889;-71
2023/01/21 05:13:56;;;;;;;12.80;9.70;;;;;;;-0.24;100.00;96807.81;110533;1238;58940;-72
2023/01/21 05:16:25;;;;;;;12.30;9.00;;;;;;;-0.22;100.00;96811.88;110723;1240;70883;-72
2023/01/21 05:18:54;;;;;;;9.70;7.30;;;;;;;-0.22;100.00;96811.69;110697;1240;70146;-72
2023/01/21 05:21:22;;;;;;;8.60;7.30;;;;;;;-0.22;100.00;96814.08;110681;1240;69857;-72
2023/01/21 05:23:51;;;;;;;9.40;7.30;;;;;;;-0.23;100.00;96814.62;110592;1240;58908;-72
2023/01/21 05:26:20;;;;;;;8.20;6.80;;;;;;;-0.26;100.00;96818.15;110624;1241;58875;-72
2023/01/21 05:28:49;;;;;;;8.60;7.30;;;;;;;-0.29;100.00;96825.14;110614;1240;71220;-73
2023/01/21 05:31:19;;;;;;;11.30;8.20;;;;;;;-0.33;100.00;96824.59;110678;1241;69097;-73
2023/01/21 05:33:47;;;;;;;10.00;7.20;;;;;;;-0.39;100.00;96825.52;110565;1241;69264;-73
2023/01/21 05:36:16;;;;;;;11.20;8.40;;;;;;;-0.46;100.00;96829.02;110731;1240;58881;-72
2023/01/21 05:38:45;;;;;;;11.70;9.20;;;;;;;-0.54;100.00;96830.86;110779;1240;58830;-72
2023/01/21 05:41:14;;;;;;;12.70;9.60;;;;;;;-0.61;100.00;96826.69;110742;1241;70447;-73
2023/01/21 05:43:44;;;;;;;11.60;8.90;;;;;;;-0.70;100.00;96825.83;110322;1244;69252;-73
2023/01/21 05:46:12;;;;;;;12.10;9.10;;;;;;;-0.76;100.00;96831.73;110656;1238;69160;-73
2023/01/21 05:48:41;;;;;;;11.70;7.90;;;;;;;-0.84;100.00;96838.16;110576;1241;58946;-73
2023/01/21 05:51:10;;;;;;;12.00;9.10;;;;;;;-0.89;100.00;96842.64;110628;1240;58866;-73
2023/01/21 05:53:39;;;;;;;12.10;8.60;;;;;;;-0.93;100.00;96850.65;110741;1239;69978;-72
2023/01/21 05:56:08;;;;;;;17.70;11.70;;;;;;;-0.98;100.00;96848.26;110608;1239;68481;-73
2023/01/21 05:58:37;;;;;;;17.10;11.30;;;;;;;-1.01;100.00;96844.77;110531;1241;69864;-73
2023/01/21 06:01:06;;;;;;;14.70;10.60;;;;;;;-1.07;100.00;96847.86;110493;1238;58865;-73
2023/01/21 06:03:37;;;;;;;19.60;14.00;;;;;;;-1.11;100.00;96855.39;110399;1241;58937;-72
2023/01/21 06:06:07;;;;;;;15.90;12.30;;;;;;;-1.17;100.00;96860.37;110365;1242;70627;-72
2023/01/21 06:08:35;;;;;;;13.70;10.10;;;;;;;-1.21;100.00;96857.98;110616;1241;69785;-72
2023/01/21 06:11:04;;;;;;;18.90;12.60;;;;;;;-1.26;100.00;96862.73;110622;1241;69771;-73
2023/01/21 06:13:33;;;;;;;15.40;12.40;;;;;;;-1.30;100.00;96864.57;110663;1241;58908;-72
2023/01/21 06:16:02;;;;;;;18.70;14.00;;;;;;;-1.34;100.00;96875.52;110630;1241;58944;-72
2023/01/21 06:18:30;;;;;;;20.90;15.80;;;;;;;-1.37;100.00;96890.81;110682;1238;70540;-72
2023/01/21 06:20:59;;;;;;;22.90;16.70;;;;;;;-1.38;100.00;96898.05;110626;1238;69221;-72
2023/01/21 06:23:28;;;;;;;17.60;14.40;;;;;;;-1.40;100.00;96898.95;110676;1239;69201;-73
2023/01/21 06:26:01;;;;;;;26.90;18.80;;;;;;;-1.41;100.00;96902.23;110643;1238;59008;-73
2023/01/21 06:28:30;;;;;;;25.70;18.70;;;;;;;-1.40;100.00;96907.33;110721;1240;58898;-73
2023/01/21 06:30:59;;;;;;;26.00;17.90;;;;;;;-1.38;100.00;96911.89;110671;1240;70445;-73
2023/01/21 06:33:28;;;;;;;23.10;16.40;;;;;;;-1.34;100.00;96915.17;110763;1241;67354;-74
2023/01/21 06:35:57;;;;;;;22.00;15.80;;;;;;;-1.26;100.00;96926.86;110528;1241;69214;-72
2023/01/21 06:38:26;;;;;;;23.10;15.70;;;;;;;-1.19;100.00;96937.04;110560;1242;58927;-72
2023/01/21 06:40:55;;;;;;;21.70;14.10;;;;;;;-1.11;100.00;96940.55;110346;1244;58828;-73
2023/01/21 06:43:23;;;;;;;24.00;16.20;;;;;;;-1.03;100.00;96934.45;110614;1241;69518;-73
2023/01/21 06:45:52;;;;;;;18.10;14.70;;;;;;;-0.93;100.00;96938.41;110684;1241;69291;-73
2023/01/21 06:48:21;;;;;;;20.90;15.40;;;;;;;-0.83;100.00;96941.66;110565;1240;69246;-73
2023/01/21 06:50:50;;;;;;;27.20;19.20;;;;;;;-0.74;100.00;96932.76;110482;1241;58934;-73
2023/01/21 06:53:19;;;;;;;22.70;17.20;;;;;;;-0.67;100.00;96925.34;110542;1240;58860;-73
2023/01/21 06:55:48;;;;;;;24.70;17.80;;;;;;;-0.61;100.00;96929.41;110597;1238;69636;-74
2023/01/21 06:58:16;;;;;;;19.20;13.50;;;;;;;-0.55;100.00;96940.83;110688;1240;69817;-73
2023/01/21 07:00:45;;;;;;;16.30;12.60;;;;;;;-0.46;100.00;96945.81;110649;1241;68281;-73
2023/01/21 07:03:13;;;;;;;13.70;10.20;;;;;;;-0.36;100.00;96956.93;110743;1240;58846;-73
2023/01/21 07:05:42;;;;;;;15.10;11.50;;;;;;;-0.26;100.00;96953.63;110741;1240;58882;-73
2023/01/21 07:08:11;;;;;;;17.20;12.80;;;;;;;-0.16;100.00;96943.49;110553;1241;69376;-74
2023/01/21 07:10:40;;;;;;;15.70;12.40;;;;;;;-0.06;100.00;96940.02;110572;1240;69635;-73
2023/01/21 07:13:08;;;;;;;17.80;13.00;;;;;;;0.07;100.00;96941.08;110646;1241;69210;-74
2023/01/21 07:15:37;;;;;;;19.80;15.40;;;;;;;0.31;100.00;96939.98;110496;1241;58925;-73
2023/01/21 07:18:05;;;;;;;18.50;13.90;;;;;;;0.60;100.00;96941.91;110545;1241;58957;-73
2023/01/21 07:20:34;;;;;;;17.70;14.00;;;;;;;0.82;100.00;96947.00;110640;1240;69777;-74
2023/01/21 07:23:03;;;;;;;12.70;11.20;;;;;;;1.01;100.00;96953.09;110436;1240;68613;-73
2023/01/21 07:25:31;;;;;;;17.60;14.30;;;;;;;1.14;100.00;96957.00;110576;1240;68673;-73
2023/01/21 07:28:00;;;;;;;16.30;13.80;;;;;;;1.26;100.00;96962.66;110655;1240;58961;-75
2023/01/21 07:30:29;;;;;;;22.60;19.10;;;;;;;1.35;100.00;96968.27;110732;1238;58886;-73
2023/01/21 07:33:03;;;;;;;20.50;16.00;;;;;;;1.40;100.00;96976.98;110739;1240;69256;-73
2023/01/21 07:35:31;;;;;;;28.40;23.10;;;;;;;1.50;100.00;96981.69;110522;1239;68658;-74
2023/01/21 07:38:00;;;;;;;22.20;19.00;;;;;;;1.52;100.00;96992.63;110429;1242;68348;-73
2023/01/21 07:40:29;;;;;;;21.10;17.70;;;;;;;1.59;100.00;97000.06;110469;1241;59731;-72
2023/01/21 07:42:58;;;;;;;27.50;23.60;;;;;;;1.65;100.00;96997.54;110581;1241;60184;-72
2023/01/21 07:45:27;;;;;;;23.20;18.00;;;;;;;1.71;100.00;97000.56;110607;1242;71964;-72
2023/01/21 07:47:55;;;;;;;24.30;19.70;;;;;;;1.83;100.00;97007.23;110217;1244;67529;-73
2023/01/21 07:50:24;;;;;;;17.50;15.50;;;;;;;1.95;100.00;97005.84;110644;1241;69273;-72
2023/01/21 07:52:55;;;;;;;17.30;13.60;;;;;;;2.05;99.68;97005.55;110338;1243;59691;-73
2023/01/21 07:55:25;;;;;;;12.30;10.20;;;;;;;2.16;98.22;97014.52;110669;1241;59626;-72
2023/01/21 07:57:57;;;;;;;12.50;10.80;;;;;;;2.33;98.16;97020.27;110634;1241;71185;-72
2023/01/21 08:00:26;;;;;;;13.50;11.40;;;;;;;2.50;96.74;97018.80;110531;1241;69054;-73
2023/01/21 08:02:55;;;;;;;17.50;14.50;;;;;;;2.67;95.45;97024.20;110488;1241;69143;-73
2023/01/21 08:05:25;;;;;;;18.80;13.80;;;;;;;2.73;93.65;97017.40;110572;1241;59742;-73
2023/01/21 08:07:57;;;;;;;15.10;13.20;;;;;;;2.88;93.14;97016.13;110704;1241;60022;-72
2023/01/21 08:10:26;;;;;;;16.50;13.40;;;;;;;3.09;92.76;97017.86;110724;1240;70386;-72
2023/01/21 08:12:54;;;;;;;17.50;15.40;;;;;;;3.71;89.40;97013.84;110617;1241;69117;-73
2023/01/21 08:15:23;;;;;;;17.00;14.60;;;;;;;4.48;87.08;97009.98;110486;1241;69882;-72
2023/01/21 08:17:52;;;;;;;17.30;14.00;;;;;;;5.00;84.20;97007.91;110634;1241;59747;-73
2023/01/21 08:20:20;;;;;;;12.80;11.50;;;;;;;5.60;78.93;97004.41;110716;1238;59750;-72
2023/01/21 08:22:49;;;;;;;9.50;8.50;;;;;;;6.35;76.44;97007.52;110585;1240;71858;-72
2023/01/21 08:25:18;;;;;;;8.80;7.80;;;;;;;6.84;73.66;97018.64;110667;1242;69127;-73
2023/01/21 08:27:46;;;;;;;8.70;7.70;;;;;;;7.62;77.27;97028.94;110432;1241;69867;-71
2023/01/21 08:30:16;;;;;;;11.90;10.60;;;;;;;8.28;77.02;97029.81;110547;1241;59706;-72
2023/01/21 08:32:44;;;;;;;9.40;7.30;;;;;;;8.90;76.22;97036.39;110729;1240;60061;-71
2023/01/21 08:35:13;;;;;;;7.10;6.40;;;;;;;9.31;71.98;97047.71;110470;1241;71828;-72
2023/01/21 08:37:43;;;;;;;7.20;6.40;;;;;;;9.62;67.45;97053.41;110437;1241;69051;-72
2023/01/21 08:40:12;;;;;;;9.20;7.50;;;;;;;9.72;63.93;97056.11;110464;1241;69865;-71
2023/01/21 08:42:41;;;;;;;9.60;8.70;;;;;;;10.01;68.39;97065.77;110572;1238;59692;-69
2023/01/21 08:45:10;;;;;;;8.00;6.70;;;;;;;9.89;64.24;97080.55;110504;1242;59668;-71
2023/01/21 08:47:42;;;;;;;6.80;5.80;;;;;;;9.77;64.71;97087.73;110622;1240;71253;-72
2023/01/21 08:50:10;;;;;;;5.10;4.60;;;;;;;9.41;64.19;97092.18;110592;1242;69220;-70
2023/01/21 08:52:39;;;;;;;7.20;6.60;;;;;;;9.49;68.10;97094.89;110373;1240;69872;-70
2023/01/21 08:55:09;;;;;;;6.80;6.10;;;;;;;9.31;67.34;97090.96;110500;1239;59645;-71
2023/01/21 08:57:37;;;;;;;6.80;6.00;;;;;;;9.12;65.06;97081.42;110585;1241;60081;-70
2023/01/21 09:00:07;;;;;;;5.60;5.00;;;;;;;9.10;64.10;97068.33;110422;1241;70385;-71
2023/01/21 09:02:36;;;;;;;6.50;5.30;;;;;;;9.47;62.41;97063.70;110522;1241;69098;-69
2023/01/21 09:05:05;;;;;;;7.70;5.70;;;;;;;9.75;61.11;97062.13;110612;1240;69731;-69
2023/01/21 09:07:34;;;;;;;6.50;5.80;;;;;;;10.47;62.97;97072.53;110485;1241;59773;-70
2023/01/21 09:10:04;;;;;;;7.00;6.30;;;;;;;10.85;61.41;97085.91;110511;1241;59678;-72
2023/01/21 09:12:34;;;;;;;6.10;5.50;;;;;;;11.36;62.44;97092.52;110419;1241;70855;-70
2023/01/21 09:15:04;;;;;;;4.50;4.00;;;;;;;11.33;58.38;97095.85;110482;1242;69133;-69
2023/01/21 09:17:33;;;;;;;4.40;3.70;;;;;;;11.29;57.69;97093.25;110403;1248;69278;-70
2023/01/21 09:20:02;;;;;;;4.00;3.30;;;;;;;10.76;56.03;97091.36;110387;1238;59695;-70
2023/01/21 09:22:31;;;;;;;4.10;3.70;;;;;;;10.33;55.62;97081.25;110310;1241;59623;-70
2023/01/21 09:25:08;;;;;;;4.50;4.10;;;;;;;10.58;57.25;97079.51;110563;1241;71443;-70
2023/01/21 09:27:37;;;;;;;4.60;3.80;;;;;;;11.50;58.17;97079.85;110408;1241;69693;-71
2023/01/21 09:30:07;;;;;;;3.50;3.10;;;;;;;12.04;55.04;97079.96;110448;1240;69855;-71
2023/01/21 09:32:36;;;;;;;5.70;4.70;;;;;;;12.47;53.07;97078.94;110665;1240;59740;-68
2023/01/21 09:35:05;;;;;;;4.30;3.80;;;;;;;12.69;51.92;97079.29;110428;1241;59694;-69
2023/01/21 09:37:37;;;;;;;4.30;3.80;;;;;;;13.18;51.82;97079.73;110198;1240;71973;-70
2023/01/21 09:40:15;;;;;;;3.90;3.40;;;;;;;13.76;53.28;97081.54;110490;1241;69198;-69
2023/01/21 09:42:46;;;;;;;4.20;3.80;;;;;;;14.02;50.05;97085.47;110412;1241;70130;-72
2023/01/21 09:45:16;;;;;;;6.50;5.10;;;;;;;13.82;48.58;97093.57;110526;1239;59733;-69
2023/01/21 09:47:49;;;;;;;4.80;4.10;;;;;;;13.73;50.16;97092.16;110466;1241;59669;-70
2023/01/21 09:50:22;;;;;;;3.80;3.40;;;;;;;13.64;50.15;97081.27;110227;1244;70891;-72
2023/01/21 09:52:58;;;;;;;4.50;3.70;;;;;;;13.20;50.25;97081.32;110404;1242;69233;-70
2023/01/21 09:55:39;;;;;;;4.40;3.90;;;;;;;12.89;50.16;97077.60;110508;1238;69759;-68
2023/01/21 09:58:10;;;;;;;;;;;;;;;12.75;49.03;97076.80;110507;1238;59726;-70
2023/01/21 10:00:46;;;;;;;4.20;3.80;;;;;;;13.24;49.53;97079.39;110470;1242;59646;-70
2023/01/21 10:03:45;;;;;;;3.80;3.10;;;;;;;13.46;48.61;97082.53;110412;1238;71443;-71
2023/01/21 10:06:14;;;;;;;3.90;3.50;;;;;;;13.77;48.64;97078.85;110534;1241;68353;-70
2023/01/21 10:09:08;;;;;;;3.30;2.90;;;;;;;13.96;48.13;97081.82;110444;1241;70110;-70
2023/01/21 10:12:14;;;;;;;3.60;2.90;;;;;;;14.64;46.51;97085.45;110523;1241;59741;-70
2023/01/21 10:15:20;;;;;;;3.80;3.30;;;;;;;14.92;45.51;97093.42;110426;1242;60084;-72
2023/01/21 10:18:00;;;;;;;2.90;2.40;;;;;;;14.74;44.50;97075.79;110465;1242;71945;-68
2023/01/21 10:20:46;;;;;;;3.90;3.10;;;;;;;14.51;43.82;97065.89;110520;1241;69818;-70
2023/01/21 10:23:30;;;;;;;3.50;2.20;;;;;;;15.07;44.27;97063.86;110565;1242;69263;-70
2023/01/21 10:26:06;;;;;;;2.00;1.70;;;;;;;15.74;42.49;97061.17;110404;1241;59682;-68
2023/01/21 10:28:39;;;;;;;3.00;2.20;;;;;;;15.48;41.57;97063.60;110521;1242;59630;-71
2023/01/21 10:31:22;;;;;;;1.80;1.40;;;;;;;15.17;42.15;97071.80;110493;1242;71192;-69
2023/01/21 10:33:52;;;;;;;1.90;1.60;;;;;;;14.01;41.41;97068.41;110601;1241;69100;-69
2023/01/21 10:36:42;;;;;;;1.80;1.40;;;;;;;13.14;42.74;97070.66;110554;1242;69167;-69
2023/01/21 10:39:50;;;;;;;2.70;2.20;;;;;;;11.85;45.57;97069.65;110528;1241;59737;-71
2023/01/21 10:42:25;;;;;;;3.20;2.50;;;;;;;11.42;47.52;97067.64;110358;1242;59660;-71
2023/01/21 10:45:04;;;;;;;1.90;1.60;;;;;;;11.42;46.36;97067.80;110369;1241;71380;-71
2023/01/21 10:47:38;;;;;;;3.10;2.60;;;;;;;11.68;46.71;97077.45;110519;1238;69279;-70
2023/01/21 10:50:46;;;;;;;3.60;2.70;;;;;;;11.95;46.40;97083.64;110485;1242;69254;-69
2023/01/21 10:53:30;;;;;;;2.70;1.90;;;;;;;12.51;46.29;97068.98;110209;1240;59744;-69
2023/01/21 10:56:04;;;;;;;2.00;1.50;;;;;;;13.19;45.49;97067.89;110315;1242;59676;-70
2023/01/21 10:58:42;;;;;;;2.10;1.60;;;;;;;13.83;44.65;97071.93;110473;1242;72131;-70
2023/01/21 11:01:26;;;;;;;2.20;1.80;;;;;;;13.58;42.70;97064.80;110547;1242;69639;-70
2023/01/21 11:04:03;;;;;;;1.90;1.30;;;;;;;13.16;44.26;97060.79;110519;1238;69336;-69
2023/01/21 11:06:34;;;;;;;2.10;1.60;;;;;;;13.63;44.12;97058.20;110603;1240;59683;-70
2023/01/21 11:09:05;;;;;;;2.40;1.70;;;;;;;13.35;43.71;97060.30;110549;1242;59689;-70
2023/01/21 11:11:36;;;;;;;2.40;2.10;;;;;;;13.34;43.72;97065.37;110425;1242;71780;-70
2023/01/21 11:14:04;;;;;;;2.80;1.80;;;;;;;13.28;44.01;97071.12;110548;1240;69690;-70
2023/01/21 11:16:44;;;;;;;2.00;1.50;;;;;;;13.45;43.88;97073.85;110585;1241;68633;-71
2023/01/21 11:19:16;;;;;;;1.90;1.50;;;;;;;13.72;43.92;97070.34;110593;1238;59696;-69
2023/01/21 11:22:04;;;;;;;2.20;1.80;;;;;;;13.94;43.35;97068.69;110475;1241;59681;-69
2023/01/21 11:24:44;;;;;;;1.90;1.50;;;;;;;13.98;43.04;97068.09;110521;1243;71986;-70
2023/01/21 11:27:21;;;;;;;1.80;1.30;;;;;;;13.62;43.00;97060.72;110409;1242;69225;-70
2023/01/21 11:29:50;;;;;;;2.30;2.00;;;;;;;13.28;43.14;97059.60;110546;1238;69388;-70
2023/01/21 11:32:22;;;;;;;3.00;2.10;;;;;;;13.31;44.46;97056.77;110420;1240;59660;-70
2023/01/21 11:35:19;;;;;;;3.10;2.00;;;;;;;12.95;44.36;97057.98;110490;1240;59627;-71
2023/01/21 11:37:47;;;;;;;3.10;2.10;;;;;;;12.00;45.62;97062.98;110603;1241;71407;-69
2023/01/21 11:40:25;;;;;;;2.30;2.10;;;;;;;11.14;48.02;97065.80;110546;1241;69703;-70
2023/01/21 11:42:56;;;;;;;;;;;;;;;10.95;48.36;97061.42;110538;1242;67813;-70
2023/01/21 11:45:35;;;;;;;2.70;2.00;;;;;;;11.25;48.54;97057.47;110533;1241;59741;-70
2023/01/21 11:48:19;;;;;;;2.50;2.10;;;;;;;11.52;48.63;97061.88;110646;1242;59733;-69
2023/01/21 11:50:48;;;;;;;2.90;2.20;;;;;;;11.79;48.33;97055.14;110234;1241;72003;-72